CFG209 EDDH-LPPT
Flight info
| Callsign | CFG209 |
|---|---|
| Flight time | N/A |
| Altitude | 36000 |
| Route | HABFU1C/05 HABFU Y348 DOMEG DCT RASCA DCT FAMEN/N0447F350 DCT ESTOC DCT PON UN872 ERIGA UZ218 FUJTI DCT BAKUP DCT BATAX DCT INBOM |
| Aircraft | A320/M-SDE3FGHIRWY/LB1 |
Departure
| Time | N/A |
|---|---|
| Airport | Hamburg Helmut Schmidt Airport (EDDH) |
Arrival
| Time | 2026-04-28 13:32 |
|---|---|
| Airport | Lisbon Humberto Delgado Airport (LPPT) |
| Time | Latitude | Longitude | Altitude | Speed | Heading |
|---|---|---|---|---|---|
| 2026-04-28 12:39 | 42.25138 | -6.19599 | 35950 ft | 433 kts | 211° |
| 2026-04-28 12:40 | 42.19918 | -6.23672 | 35947 ft | 433 kts | 211° |
| 2026-04-28 12:40 | 42.14734 | -6.27700 | 35944 ft | 433 kts | 211° |
| 2026-04-28 12:41 | 42.09485 | -6.31776 | 35939 ft | 432 kts | 211° |
| 2026-04-28 12:41 | 42.04276 | -6.35827 | 35888 ft | 432 kts | 211° |
| 2026-04-28 12:42 | 41.99101 | -6.39840 | 35672 ft | 431 kts | 211° |
| 2026-04-28 12:42 | 41.96494 | -6.41852 | 35571 ft | 431 kts | 211° |
| 2026-04-28 12:42 | 41.93899 | -6.43852 | 35473 ft | 431 kts | 211° |
| 2026-04-28 12:42 | 41.91299 | -6.45854 | 35369 ft | 431 kts | 211° |
| 2026-04-28 12:43 | 41.88698 | -6.47856 | 35278 ft | 431 kts | 211° |
| 2026-04-28 12:43 | 41.83495 | -6.51870 | 35068 ft | 432 kts | 211° |
| 2026-04-28 12:43 | 41.80892 | -6.53875 | 34882 ft | 431 kts | 211° |
| 2026-04-28 12:44 | 41.78291 | -6.55872 | 34909 ft | 431 kts | 211° |
| 2026-04-28 12:44 | 41.73092 | -6.59858 | 34904 ft | 430 kts | 211° |
| 2026-04-28 12:45 | 41.68075 | -6.64194 | 34906 ft | 429 kts | 218° |
| 2026-04-28 12:45 | 41.64129 | -6.68236 | 34901 ft | 430 kts | 218° |
| 2026-04-28 12:46 | 41.59377 | -6.73081 | 34893 ft | 430 kts | 218° |
| 2026-04-28 12:46 | 41.54611 | -6.77920 | 34893 ft | 430 kts | 217° |
| 2026-04-28 12:47 | 41.49856 | -6.82754 | 34894 ft | 430 kts | 218° |
| 2026-04-28 12:47 | 41.45099 | -6.87586 | 34890 ft | 430 kts | 217° |
| 2026-04-28 12:48 | 41.40324 | -6.92399 | 34890 ft | 430 kts | 217° |
| 2026-04-28 12:48 | 41.35555 | -6.97211 | 34891 ft | 430 kts | 217° |
| 2026-04-28 12:49 | 41.30785 | -7.02017 | 34895 ft | 430 kts | 217° |
| 2026-04-28 12:49 | 41.26004 | -7.06819 | 34893 ft | 430 kts | 217° |
| 2026-04-28 12:50 | 41.21227 | -7.11610 | 34890 ft | 430 kts | 217° |
| 2026-04-28 12:50 | 41.16453 | -7.16393 | 34890 ft | 430 kts | 217° |
| 2026-04-28 12:51 | 41.11676 | -7.21171 | 34888 ft | 430 kts | 217° |
| 2026-04-28 12:51 | 41.06892 | -7.25961 | 34893 ft | 431 kts | 217° |
| 2026-04-28 12:52 | 41.02094 | -7.30739 | 34893 ft | 432 kts | 217° |
| 2026-04-28 12:52 | 40.97287 | -7.35506 | 34895 ft | 432 kts | 217° |
| 2026-04-28 12:53 | 40.92486 | -7.40281 | 34895 ft | 432 kts | 217° |
| 2026-04-28 12:53 | 40.87680 | -7.45047 | 34897 ft | 432 kts | 217° |
| 2026-04-28 12:54 | 40.82870 | -7.49801 | 34895 ft | 432 kts | 217° |
| 2026-04-28 12:54 | 40.78082 | -7.54519 | 34895 ft | 432 kts | 217° |
| 2026-04-28 12:55 | 40.73271 | -7.59256 | 34898 ft | 432 kts | 217° |
| 2026-04-28 12:55 | 40.68439 | -7.64007 | 34900 ft | 433 kts | 216° |
| 2026-04-28 12:56 | 40.63604 | -7.68750 | 34900 ft | 433 kts | 216° |
| 2026-04-28 12:56 | 40.58772 | -7.73458 | 34901 ft | 432 kts | 216° |
| 2026-04-28 12:57 | 40.53892 | -7.78061 | 34898 ft | 431 kts | 215° |
| 2026-04-28 12:57 | 40.48994 | -7.82626 | 34898 ft | 431 kts | 215° |
| 2026-04-28 12:58 | 40.44102 | -7.87216 | 34901 ft | 432 kts | 215° |
| 2026-04-28 12:58 | 40.39226 | -7.91806 | 34895 ft | 432 kts | 215° |
| 2026-04-28 12:59 | 40.34342 | -7.96400 | 34898 ft | 432 kts | 215° |
| 2026-04-28 12:59 | 40.29449 | -8.00986 | 34898 ft | 432 kts | 215° |
| 2026-04-28 13:00 | 40.24558 | -8.05554 | 34895 ft | 432 kts | 215° |
| 2026-04-28 13:00 | 40.19694 | -8.10087 | 34898 ft | 431 kts | 215° |
| 2026-04-28 13:01 | 40.14811 | -8.14634 | 34899 ft | 430 kts | 215° |
| 2026-04-28 13:01 | 40.09932 | -8.19167 | 34897 ft | 430 kts | 215° |
| 2026-04-28 13:02 | 40.05053 | -8.23702 | 34893 ft | 430 kts | 215° |
| 2026-04-28 13:02 | 40.00173 | -8.28228 | 34893 ft | 430 kts | 215° |
| 2026-04-28 13:03 | 39.95282 | -8.32743 | 34885 ft | 430 kts | 214° |
| 2026-04-28 13:03 | 39.90418 | -8.37230 | 34887 ft | 429 kts | 214° |
| 2026-04-28 13:04 | 39.85547 | -8.41725 | 34887 ft | 429 kts | 214° |
| 2026-04-28 13:04 | 39.80648 | -8.46237 | 34889 ft | 429 kts | 214° |
| 2026-04-28 13:05 | 39.75807 | -8.50692 | 34887 ft | 429 kts | 214° |
| 2026-04-28 13:05 | 39.70935 | -8.55162 | 34871 ft | 429 kts | 214° |
| 2026-04-28 13:06 | 39.66047 | -8.59640 | 34889 ft | 430 kts | 214° |
| 2026-04-28 13:06 | 39.61170 | -8.64098 | 34884 ft | 426 kts | 214° |
| 2026-04-28 13:06 | 39.58784 | -8.66279 | 34881 ft | 410 kts | 214° |
| 2026-04-28 13:07 | 39.56493 | -8.68370 | 34883 ft | 397 kts | 214° |
| 2026-04-28 13:07 | 39.51992 | -8.72470 | 34105 ft | 411 kts | 214° |
| 2026-04-28 13:07 | 39.49613 | -8.74632 | 32934 ft | 423 kts | 214° |
| 2026-04-28 13:08 | 39.47184 | -8.76841 | 31743 ft | 430 kts | 214° |
| 2026-04-28 13:08 | 39.44718 | -8.79083 | 30589 ft | 436 kts | 214° |
| 2026-04-28 13:08 | 39.42221 | -8.81347 | 29376 ft | 440 kts | 214° |
| 2026-04-28 13:08 | 39.39706 | -8.83624 | 28085 ft | 444 kts | 214° |
| 2026-04-28 13:09 | 39.37169 | -8.85923 | 26842 ft | 447 kts | 214° |
| 2026-04-28 13:09 | 39.34618 | -8.88231 | 25662 ft | 449 kts | 214° |
| 2026-04-28 13:09 | 39.32056 | -8.90550 | 24496 ft | 450 kts | 214° |
| 2026-04-28 13:09 | 39.29485 | -8.92877 | 23375 ft | 452 kts | 214° |
| 2026-04-28 13:10 | 39.26903 | -8.95207 | 22189 ft | 453 kts | 214° |
| 2026-04-28 13:10 | 39.24339 | -8.97518 | 21472 ft | 444 kts | 214° |
| 2026-04-28 13:10 | 39.21829 | -8.99778 | 20720 ft | 438 kts | 214° |
| 2026-04-28 13:10 | 39.19343 | -9.02015 | 20000 ft | 432 kts | 214° |
| 2026-04-28 13:11 | 39.16891 | -9.04218 | 19303 ft | 427 kts | 214° |
| 2026-04-28 13:11 | 39.14458 | -9.06406 | 18616 ft | 423 kts | 214° |
| 2026-04-28 13:11 | 39.12053 | -9.08568 | 17925 ft | 420 kts | 214° |
| 2026-04-28 13:11 | 39.09671 | -9.10708 | 17273 ft | 415 kts | 214° |
| 2026-04-28 13:12 | 39.07309 | -9.12822 | 16674 ft | 411 kts | 214° |
| 2026-04-28 13:12 | 39.04994 | -9.14877 | 16090 ft | 407 kts | 212° |
| 2026-04-28 13:12 | 39.02466 | -9.16397 | 15395 ft | 398 kts | 195° |
| 2026-04-28 13:12 | 38.99746 | -9.16897 | 14503 ft | 394 kts | 184° |
| 2026-04-28 13:13 | 38.97022 | -9.17054 | 13551 ft | 390 kts | 181° |
| 2026-04-28 13:13 | 38.94317 | -9.17063 | 12520 ft | 386 kts | 180° |
| 2026-04-28 13:13 | 38.91648 | -9.17060 | 11520 ft | 381 kts | 180° |
| 2026-04-28 13:13 | 38.89026 | -9.17289 | 10549 ft | 376 kts | 193° |
| 2026-04-28 13:14 | 38.86599 | -9.18382 | 10025 ft | 359 kts | 202° |
| 2026-04-28 13:14 | 38.84369 | -9.19550 | 9903 ft | 333 kts | 202° |
| 2026-04-28 13:14 | 38.82296 | -9.20643 | 9780 ft | 311 kts | 202° |
| 2026-04-28 13:14 | 38.80355 | -9.21654 | 9625 ft | 292 kts | 201° |
| 2026-04-28 13:15 | 38.78516 | -9.22668 | 9205 ft | 284 kts | 204° |
| 2026-04-28 13:15 | 38.76744 | -9.23691 | 8972 ft | 270 kts | 204° |
| 2026-04-28 13:15 | 38.75084 | -9.24652 | 8843 ft | 254 kts | 204° |
| 2026-04-28 13:15 | 38.73513 | -9.25566 | 8548 ft | 244 kts | 204° |
| 2026-04-28 13:16 | 38.71993 | -9.26450 | 8302 ft | 233 kts | 204° |
| 2026-04-28 13:16 | 38.70559 | -9.27283 | 8129 ft | 220 kts | 204° |
| 2026-04-28 13:16 | 38.69181 | -9.28079 | 7792 ft | 216 kts | 204° |
| 2026-04-28 13:16 | 38.67842 | -9.28850 | 7594 ft | 204 kts | 204° |
| 2026-04-28 13:17 | 38.66561 | -9.29584 | 7220 ft | 201 kts | 204° |
| 2026-04-28 13:17 | 38.65228 | -9.30077 | 6799 ft | 200 kts | 178° |
| 2026-04-28 13:17 | 38.63939 | -9.29513 | 6391 ft | 199 kts | 140° |
| 2026-04-28 13:17 | 38.63099 | -9.28133 | 5960 ft | 199 kts | 119° |
| 2026-04-28 13:18 | 38.62443 | -9.26570 | 5528 ft | 199 kts | 116° |
| 2026-04-28 13:18 | 38.61885 | -9.24954 | 5113 ft | 198 kts | 101° |
| 2026-04-28 13:18 | 38.62006 | -9.23248 | 4691 ft | 194 kts | 62° |
| 2026-04-28 13:18 | 38.62887 | -9.22046 | 4280 ft | 189 kts | 30° |
| 2026-04-28 13:19 | 38.64030 | -9.21235 | 3805 ft | 187 kts | 25° |
| 2026-04-28 13:19 | 38.65201 | -9.20509 | 3260 ft | 187 kts | 25° |
| 2026-04-28 13:19 | 38.66375 | -9.19799 | 2712 ft | 187 kts | 25° |
| 2026-04-28 13:19 | 38.67547 | -9.19143 | 2314 ft | 181 kts | 22° |
| 2026-04-28 13:20 | 38.68716 | -9.18595 | 2024 ft | 174 kts | 20° |
| 2026-04-28 13:20 | 38.69815 | -9.18072 | 1789 ft | 163 kts | 23° |
| 2026-04-28 13:20 | 38.70840 | -9.17513 | 1598 ft | 158 kts | 25° |
| 2026-04-28 13:20 | 38.71840 | -9.16938 | 1369 ft | 156 kts | 24° |
| 2026-04-28 13:21 | 38.72841 | -9.16395 | 1201 ft | 156 kts | 22° |
| 2026-04-28 13:21 | 38.73840 | -9.15863 | 1011 ft | 155 kts | 22° |
| 2026-04-28 13:21 | 38.74836 | -9.15335 | 808 ft | 155 kts | 21° |
| 2026-04-28 13:21 | 38.75831 | -9.14815 | 659 ft | 156 kts | 21° |
| 2026-04-28 13:22 | 38.76833 | -9.14310 | 1454 ft | 145 kts | 20° |
| 2026-04-28 13:22 | 38.77705 | -9.13829 | 2397 ft | 130 kts | 28° |
| 2026-04-28 13:22 | 38.78495 | -9.13269 | 3002 ft | 134 kts | 30° |
| 2026-04-28 13:22 | 38.79434 | -9.12808 | 3433 ft | 157 kts | 7° |
| 2026-04-28 13:23 | 38.80545 | -9.13141 | 3907 ft | 180 kts | 323° |
| 2026-04-28 13:23 | 38.81452 | -9.14352 | 4221 ft | 198 kts | 307° |
| 2026-04-28 13:23 | 38.82082 | -9.15875 | 4883 ft | 193 kts | 280° |
| 2026-04-28 13:23 | 38.81909 | -9.17559 | 5422 ft | 195 kts | 242° |
| 2026-04-28 13:24 | 38.80967 | -9.18815 | 5925 ft | 201 kts | 214° |
| 2026-04-28 13:24 | 38.79769 | -9.19756 | 5999 ft | 200 kts | 210° |
| 2026-04-28 13:24 | 38.78568 | -9.20611 | 6005 ft | 199 kts | 209° |
| 2026-04-28 13:24 | 38.77351 | -9.21466 | 6007 ft | 199 kts | 209° |
| 2026-04-28 13:25 | 38.76138 | -9.22319 | 6008 ft | 199 kts | 209° |
| 2026-04-28 13:25 | 38.74921 | -9.23171 | 6006 ft | 200 kts | 209° |
| 2026-04-28 13:25 | 38.73702 | -9.24023 | 5766 ft | 199 kts | 209° |
| 2026-04-28 13:25 | 38.72487 | -9.24864 | 5472 ft | 199 kts | 209° |
| 2026-04-28 13:26 | 38.71267 | -9.25698 | 5177 ft | 199 kts | 208° |
| 2026-04-28 13:26 | 38.70047 | -9.26526 | 4899 ft | 198 kts | 209° |
| 2026-04-28 13:26 | 38.68830 | -9.27337 | 4597 ft | 197 kts | 209° |
| 2026-04-28 13:26 | 38.67607 | -9.28133 | 4283 ft | 197 kts | 208° |
| 2026-04-28 13:27 | 38.66753 | -9.28513 | 4099 ft | 197 kts | 187° |
| 2026-04-28 13:27 | 38.65442 | -9.28179 | 3833 ft | 195 kts | 148° |
| 2026-04-28 13:27 | 38.64504 | -9.26964 | 3563 ft | 193 kts | 121° |
| 2026-04-28 13:27 | 38.63913 | -9.25425 | 3290 ft | 193 kts | 107° |
| 2026-04-28 13:28 | 38.63694 | -9.23750 | 3015 ft | 191 kts | 88° |
| 2026-04-28 13:28 | 38.63971 | -9.22124 | 2795 ft | 187 kts | 63° |
| 2026-04-28 13:28 | 38.64770 | -9.20826 | 2639 ft | 187 kts | 41° |
| 2026-04-28 13:28 | 38.65861 | -9.19934 | 2421 ft | 187 kts | 24° |
| 2026-04-28 13:29 | 38.67078 | -9.19391 | 2203 ft | 182 kts | 17° |
| 2026-04-28 13:29 | 38.68261 | -9.18889 | 1981 ft | 178 kts | 21° |
| 2026-04-28 13:29 | 38.69398 | -9.18291 | 1732 ft | 176 kts | 24° |
| 2026-04-28 13:29 | 38.70503 | -9.17688 | 1513 ft | 168 kts | 24° |
| 2026-04-28 13:30 | 38.71546 | -9.17123 | 1351 ft | 159 kts | 23° |
| 2026-04-28 13:30 | 38.72556 | -9.16565 | 1216 ft | 157 kts | 23° |
| 2026-04-28 13:30 | 38.73558 | -9.16031 | 1041 ft | 156 kts | 22° |
| 2026-04-28 13:30 | 38.74556 | -9.15499 | 833 ft | 155 kts | 22° |
| 2026-04-28 13:31 | 38.76528 | -9.14454 | 405 ft | 152 kts | 23° |
| 2026-04-28 13:31 | 38.77431 | -9.13966 | 363 ft | 119 kts | 23° |
| 2026-04-28 13:31 | 38.78036 | -9.13645 | 368 ft | 63 kts | 22° |
| 2026-04-28 13:32 | 38.78273 | -9.13485 | 365 ft | 32 kts | 39° |
| 2026-04-28 13:32 | 38.78376 | -9.13327 | 364 ft | 16 kts | 77° |
| 2026-04-28 13:32 | 38.78296 | -9.13277 | 362 ft | 14 kts | 202° |
| 2026-04-28 13:32 | 38.78204 | -9.13326 | 360 ft | 15 kts | 202° |
| 2026-04-28 13:33 | 38.78109 | -9.13375 | 360 ft | 15 kts | 202° |
| 2026-04-28 13:33 | 38.78012 | -9.13416 | 358 ft | 13 kts | 178° |
| 2026-04-28 13:33 | 38.77923 | -9.13389 | 351 ft | 7 kts | 170° |
| 2026-04-28 13:33 | 38.77915 | -9.13387 | 351 ft | 2 kts | 170° |
| 2026-04-28 13:34 | 38.77881 | -9.13378 | 349 ft | 9 kts | 168° |
| 2026-04-28 13:34 | 38.77814 | -9.13360 | 347 ft | 11 kts | 167° |
| 2026-04-28 13:34 | 38.77719 | -9.13334 | 340 ft | 18 kts | 168° |
| 2026-04-28 13:34 | 38.77579 | -9.13318 | 338 ft | 21 kts | 175° |
| 2026-04-28 13:35 | 38.77427 | -9.13277 | 338 ft | 23 kts | 168° |
| 2026-04-28 13:35 | 38.77273 | -9.13245 | 337 ft | 15 kts | 168° |
| 2026-04-28 13:35 | 38.77244 | -9.13196 | 336 ft | 7 kts | 70° |
| 2026-04-28 13:35 | 38.77251 | -9.13171 | 334 ft | 0 kts | 76° |
| 2026-04-28 13:36 | 38.77254 | -9.13156 | 335 ft | 0 kts | 76° |
| 2026-04-28 13:36 | 38.77255 | -9.13152 | 335 ft | 0 kts | 77° |
| 2026-04-28 13:36 | 38.77255 | -9.13149 | 336 ft | 0 kts | 77° |